Time;durP1;ratioP1;P1;durP2;ratioP2;P2;SDS_P1;SDS_P2;PMS_P1;PMS_P2;Temp;Humidity;BMP_temperature;BMP_pressure;BME280_temperature;BME280_humidity;BME280_pressure;Samples;Min_cycle;Max_cycle;Signal;HPM_P1;HPM_P2
2023/05/14 00:02:07;;;;;;;10.20;6.77;;;;;;;;;;5060477;28;20029;-78
2023/05/14 00:04:32;;;;;;;10.00;6.50;;;;;;;;;;5039852;28;20273;-77
2023/05/14 00:06:57;;;;;;;8.83;6.87;;;;;;;;;;5042369;28;20262;-77
2023/05/14 00:09:23;;;;;;;10.10;7.32;;;;;;;;;;5057337;28;20256;-78
2023/05/14 00:11:48;;;;;;;9.95;6.47;;;;;;;;;;5059349;28;20541;-78
2023/05/14 00:14:13;;;;;;;8.80;6.25;;;;;;;;;;5060774;28;20100;-78
2023/05/14 00:16:38;;;;;;;10.38;6.35;;;;;;;;;;5059335;28;20029;-78
2023/05/14 00:19:04;;;;;;;10.30;6.77;;;;;;;;;;5041437;28;20025;-78
2023/05/14 00:21:30;;;;;;;10.65;6.55;;;;;;;;;;5059461;28;20261;-78
2023/05/14 00:23:55;;;;;;;8.57;6.32;;;;;;;;;;5059657;28;20108;-78
2023/05/14 00:26:20;;;;;;;12.27;6.50;;;;;;;;;;5057512;28;20059;-78
2023/05/14 00:28:46;;;;;;;8.97;6.40;;;;;;;;;;5056519;28;20304;-78
2023/05/14 00:31:11;;;;;;;9.38;6.30;;;;;;;;;;5060245;28;20262;-78
2023/05/14 00:33:36;;;;;;;10.00;6.33;;;;;;;;;;5058121;28;20032;-78
2023/05/14 00:36:02;;;;;;;9.57;6.07;;;;;;;;;;5058562;28;20262;-77
2023/05/14 00:38:27;;;;;;;8.68;6.53;;;;;;;;;;5058967;28;20336;-78
2023/05/14 00:40:52;;;;;;;11.80;6.75;;;;;;;;;;5057618;28;20052;-78
2023/05/14 00:43:19;;;;;;;8.65;6.55;;;;;;;;;;5041136;28;20112;-78
2023/05/14 00:45:46;;;;;;;9.32;6.88;;;;;;;;;;5059194;28;20498;-78
2023/05/14 00:48:12;;;;;;;7.90;6.50;;;;;;;;;;5041044;28;20116;-78
2023/05/14 00:50:37;;;;;;;8.82;6.10;;;;;;;;;;5056985;28;20112;-77
2023/05/14 00:53:08;;;;;;;8.48;5.82;;;;;;;;;;5056711;28;20057;-78
2023/05/14 00:55:34;;;;;;;9.88;6.95;;;;;;;;;;5060363;28;20029;-78
2023/05/14 00:58:00;;;;;;;8.77;6.07;;;;;;;;;;5060096;28;20511;-78
2023/05/14 01:00:25;;;;;;;8.88;6.20;;;;;;;;;;5040532;28;20025;-79
2023/05/14 01:02:50;;;;;;;10.35;6.47;;;;;;;;;;5061714;28;20075;-79
2023/05/14 01:05:16;;;;;;;12.60;6.57;;;;;;;;;;5060225;28;20116;-78
2023/05/14 01:07:46;;;;;;;8.57;6.47;;;;;;;;;;5059582;28;20297;-78
2023/05/14 01:10:31;;;;;;;11.85;6.85;;;;;;;;;;5040121;28;20052;-79
2023/05/14 01:13:25;;;;;;;11.20;6.72;;;;;;;;;;5058426;28;20028;-78
2023/05/14 01:15:53;;;;;;;13.23;6.57;;;;;;;;;;5056611;28;20111;-77
2023/05/14 01:18:20;;;;;;;9.75;6.60;;;;;;;;;;5057535;28;20111;-79
2023/05/14 01:20:49;;;;;;;8.55;6.40;;;;;;;;;;5037923;28;20025;-77
2023/05/14 01:23:15;;;;;;;8.90;6.47;;;;;;;;;;5055737;28;20021;-78
2023/05/14 01:25:40;;;;;;;9.27;6.27;;;;;;;;;;5057324;28;20090;-77
2023/05/14 01:28:18;;;;;;;10.98;6.47;;;;;;;;;;5060199;28;20261;-79
2023/05/14 01:30:53;;;;;;;8.52;6.30;;;;;;;;;;5038707;28;20021;-79
2023/05/14 01:33:19;;;;;;;10.13;6.90;;;;;;;;;;5057143;28;20036;-79
2023/05/14 01:35:45;;;;;;;9.35;6.75;;;;;;;;;;5057966;28;20538;-78
2023/05/14 01:38:12;;;;;;;9.10;6.65;;;;;;;;;;5038615;28;20032;-77
2023/05/14 01:40:38;;;;;;;9.55;6.85;;;;;;;;;;5057268;28;20051;-78
2023/05/14 01:43:04;;;;;;;11.38;6.35;;;;;;;;;;5056014;28;20040;-78
2023/05/14 01:45:30;;;;;;;8.13;6.45;;;;;;;;;;5037777;28;20025;-77
2023/05/14 01:47:56;;;;;;;16.20;6.40;;;;;;;;;;5056578;28;20029;-78
2023/05/14 01:50:22;;;;;;;9.80;5.85;;;;;;;;;;5056133;28;20476;-78
2023/05/14 01:52:47;;;;;;;11.98;6.72;;;;;;;;;;5055906;28;20055;-78
2023/05/14 01:55:12;;;;;;;8.77;6.38;;;;;;;;;;5038167;28;20028;-78
2023/05/14 01:57:38;;;;;;;10.20;6.60;;;;;;;;;;5056321;28;20029;-77
2023/05/14 02:00:04;;;;;;;10.02;6.55;;;;;;;;;;5057909;28;20025;-78
2023/05/14 02:02:29;;;;;;;7.93;6.13;;;;;;;;;;5056464;28;20104;-78
2023/05/14 02:04:54;;;;;;;8.60;6.53;;;;;;;;;;5056835;28;20055;-80
2023/05/14 02:07:20;;;;;;;8.93;6.18;;;;;;;;;;5055895;28;20112;-77
2023/05/14 02:09:45;;;;;;;10.70;6.55;;;;;;;;;;5057054;28;20027;-78
2023/05/14 02:12:10;;;;;;;9.60;6.10;;;;;;;;;;5039690;28;20027;-78
2023/05/14 02:14:36;;;;;;;8.18;5.78;;;;;;;;;;5056581;28;20290;-78
2023/05/14 02:17:02;;;;;;;10.13;6.22;;;;;;;;;;5056401;28;20024;-78
2023/05/14 02:19:28;;;;;;;8.25;6.20;;;;;;;;;;5038381;28;20031;-78
2023/05/14 02:21:53;;;;;;;9.50;6.32;;;;;;;;;;5057375;28;20065;-78
2023/05/14 02:24:18;;;;;;;8.70;5.95;;;;;;;;;;5038744;28;20020;-79
2023/05/14 02:26:43;;;;;;;8.50;6.33;;;;;;;;;;5057079;28;20040;-78
2023/05/14 02:29:08;;;;;;;7.47;5.93;;;;;;;;;;5056010;28;20265;-78
2023/05/14 02:31:34;;;;;;;8.93;6.23;;;;;;;;;;5055186;28;20261;-77
2023/05/14 02:34:03;;;;;;;10.43;6.25;;;;;;;;;;5039739;28;20787;-78
2023/05/14 02:36:28;;;;;;;11.38;6.05;;;;;;;;;;5054936;28;20052;-78
2023/05/14 02:38:53;;;;;;;8.57;6.18;;;;;;;;;;5055404;28;20477;-78
2023/05/14 02:41:18;;;;;;;8.53;6.20;;;;;;;;;;5057220;28;20067;-77
2023/05/14 02:43:44;;;;;;;9.45;7.03;;;;;;;;;;5055932;28;20277;-79
2023/05/14 02:46:09;;;;;;;7.85;6.47;;;;;;;;;;5055911;28;20056;-79
2023/05/14 02:48:34;;;;;;;9.48;6.63;;;;;;;;;;5037489;28;20025;-78
2023/05/14 02:51:00;;;;;;;9.17;6.80;;;;;;;;;;5056251;28;20029;-79
2023/05/14 02:53:25;;;;;;;10.40;7.05;;;;;;;;;;5055924;28;20254;-79
2023/05/14 02:55:50;;;;;;;9.60;6.60;;;;;;;;;;5055856;28;20081;-79
2023/05/14 02:58:15;;;;;;;10.80;6.90;;;;;;;;;;5055776;28;20343;-79
2023/05/14 03:00:41;;;;;;;8.93;6.40;;;;;;;;;;5056185;28;20262;-78
2023/05/14 03:03:06;;;;;;;8.88;6.57;;;;;;;;;;5057624;28;20025;-78
2023/05/14 03:05:31;;;;;;;8.60;6.50;;;;;;;;;;5060720;28;20040;-79
2023/05/14 03:07:57;;;;;;;10.70;6.83;;;;;;;;;;5041941;28;20257;-77
2023/05/14 03:10:22;;;;;;;9.13;6.88;;;;;;;;;;5059663;28;20256;-77
2023/05/14 03:12:48;;;;;;;11.33;6.73;;;;;;;;;;5043051;28;20026;-79
2023/05/14 03:15:13;;;;;;;9.65;7.13;;;;;;;;;;5062486;28;20262;-78
2023/05/14 03:17:38;;;;;;;9.20;6.45;;;;;;;;;;5061728;28;20111;-78
2023/05/14 03:20:04;;;;;;;9.70;6.87;;;;;;;;;;5059220;28;20160;-78
2023/05/14 03:22:29;;;;;;;8.98;6.57;;;;;;;;;;5060647;28;20285;-78
2023/05/14 03:24:54;;;;;;;13.45;7.13;;;;;;;;;;5060513;28;20032;-78
2023/05/14 03:27:20;;;;;;;9.83;6.63;;;;;;;;;;5060779;28;20068;-78
2023/05/14 03:29:45;;;;;;;11.60;6.90;;;;;;;;;;5062070;28;20257;-79
2023/05/14 03:32:13;;;;;;;9.15;6.45;;;;;;;;;;5062516;28;20025;-79
2023/05/14 03:34:39;;;;;;;8.73;6.75;;;;;;;;;;5043279;28;20041;-78
2023/05/14 03:37:04;;;;;;;9.90;6.70;;;;;;;;;;5061966;28;20047;-77
2023/05/14 03:39:29;;;;;;;8.60;6.45;;;;;;;;;;5061114;28;20087;-78
2023/05/14 03:41:56;;;;;;;9.07;6.88;;;;;;;;;;5042981;28;20076;-79
2023/05/14 03:44:21;;;;;;;12.18;6.63;;;;;;;;;;5061448;28;20104;-78
2023/05/14 03:46:46;;;;;;;11.75;6.97;;;;;;;;;;5062523;28;20049;-79
2023/05/14 03:49:11;;;;;;;9.82;6.78;;;;;;;;;;5063043;28;20500;-79
2023/05/14 03:51:37;;;;;;;9.67;6.37;;;;;;;;;;5044983;28;20029;-79
2023/05/14 03:54:02;;;;;;;8.90;6.47;;;;;;;;;;5061187;28;20258;-78
2023/05/14 03:56:27;;;;;;;9.90;6.70;;;;;;;;;;5058505;28;20262;-78
2023/05/14 03:58:52;;;;;;;8.20;6.17;;;;;;;;;;5060380;28;20033;-79
2023/05/14 04:01:18;;;;;;;13.73;6.83;;;;;;;;;;5059316;28;20278;-78
2023/05/14 04:03:43;;;;;;;9.10;6.63;;;;;;;;;;5057465;28;20278;-78
2023/05/14 04:06:08;;;;;;;13.07;6.93;;;;;;;;;;5058854;28;20021;-77
2023/05/14 04:08:34;;;;;;;11.38;6.75;;;;;;;;;;5040389;28;20266;-75
2023/05/14 04:10:59;;;;;;;12.27;6.28;;;;;;;;;;5058173;28;20021;-77
2023/05/14 04:13:24;;;;;;;10.23;6.53;;;;;;;;;;5057827;28;20025;-79
2023/05/14 04:15:49;;;;;;;7.50;5.83;;;;;;;;;;5061882;28;20110;-79
2023/05/14 04:18:16;;;;;;;9.57;6.50;;;;;;;;;;5062707;28;20262;-78
2023/05/14 04:20:41;;;;;;;8.13;6.22;;;;;;;;;;5062520;28;20665;-79
2023/05/14 04:23:06;;;;;;;9.95;6.57;;;;;;;;;;5062984;28;20047;-79
2023/05/14 04:25:31;;;;;;;10.33;6.87;;;;;;;;;;5043672;28;20035;-79
2023/05/14 04:27:57;;;;;;;8.93;6.50;;;;;;;;;;5061033;28;20281;-79
2023/05/14 04:30:22;;;;;;;9.63;6.40;;;;;;;;;;5061299;28;20265;-79
2023/05/14 04:32:48;;;;;;;17.92;6.55;;;;;;;;;;5061538;28;20012;-79
2023/05/14 04:35:13;;;;;;;7.22;5.90;;;;;;;;;;5043254;28;20021;-79
2023/05/14 04:37:39;;;;;;;10.10;6.50;;;;;;;;;;5061856;28;20052;-79
2023/05/14 04:40:07;;;;;;;11.43;6.75;;;;;;;;;;5061383;28;20036;-79
2023/05/14 04:42:33;;;;;;;10.20;6.78;;;;;;;;;;5061427;28;20033;-79
2023/05/14 04:44:58;;;;;;;8.43;6.57;;;;;;;;;;5043456;28;20097;-79
2023/05/14 04:47:23;;;;;;;9.10;6.63;;;;;;;;;;5060246;28;20273;-79
2023/05/14 04:49:48;;;;;;;9.35;6.25;;;;;;;;;;5042796;28;20017;-79
2023/05/14 04:52:14;;;;;;;10.98;6.60;;;;;;;;;;5060261;28;20118;-79
2023/05/14 04:54:39;;;;;;;10.65;6.18;;;;;;;;;;5060350;28;20021;-77
2023/05/14 04:57:04;;;;;;;9.38;6.15;;;;;;;;;;5056027;28;20025;-78
2023/05/14 04:59:30;;;;;;;8.80;6.53;;;;;;;;;;5037999;28;20029;-78
2023/05/14 05:01:55;;;;;;;9.13;6.03;;;;;;;;;;5057926;28;20442;-78
2023/05/14 05:04:22;;;;;;;8.02;5.75;;;;;;;;;;5057364;28;20119;-78
2023/05/14 05:06:48;;;;;;;8.68;5.60;;;;;;;;;;5057188;28;20032;-80
2023/05/14 05:09:13;;;;;;;7.05;5.80;;;;;;;;;;5058202;28;20033;-78
2023/05/14 05:11:38;;;;;;;9.43;5.65;;;;;;;;;;5057931;28;20029;-79
2023/05/14 05:14:03;;;;;;;13.85;5.78;;;;;;;;;;5060096;28;20078;-79
2023/05/14 05:16:29;;;;;;;9.27;5.80;;;;;;;;;;5040787;28;20021;-78
2023/05/14 05:18:54;;;;;;;8.23;5.57;;;;;;;;;;5040603;28;20266;-78
2023/05/14 05:21:19;;;;;;;7.90;5.50;;;;;;;;;;5056900;28;20036;-78
2023/05/14 05:23:45;;;;;;;8.52;5.82;;;;;;;;;;5054710;28;20091;-77
2023/05/14 05:26:10;;;;;;;10.23;6.20;;;;;;;;;;5056127;28;20039;-79
2023/05/14 05:28:35;;;;;;;8.10;5.32;;;;;;;;;;5057238;28;20269;-78
2023/05/14 05:31:00;;;;;;;5.97;5.03;;;;;;;;;;5056574;28;20025;-78
2023/05/14 05:33:25;;;;;;;9.90;5.45;;;;;;;;;;5038085;28;20571;-79
2023/05/14 05:35:51;;;;;;;8.88;5.93;;;;;;;;;;5056846;28;20033;-78
2023/05/14 05:38:17;;;;;;;8.88;6.10;;;;;;;;;;5039256;28;20431;-78
2023/05/14 05:40:42;;;;;;;12.60;5.38;;;;;;;;;;5056110;28;20549;-78
2023/05/14 05:43:07;;;;;;;8.52;5.57;;;;;;;;;;5039022;28;20029;-78
2023/05/14 05:45:32;;;;;;;7.65;5.40;;;;;;;;;;5037110;28;20115;-79
2023/05/14 05:47:58;;;;;;;10.07;6.30;;;;;;;;;;5057624;28;20021;-78
2023/05/14 05:50:23;;;;;;;7.47;5.53;;;;;;;;;;5039402;28;20111;-78
2023/05/14 05:52:48;;;;;;;7.63;5.50;;;;;;;;;;5057767;28;20028;-78
2023/05/14 05:55:14;;;;;;;7.75;5.15;;;;;;;;;;5055824;28;20269;-78
2023/05/14 05:57:39;;;;;;;8.53;5.80;;;;;;;;;;5038718;28;20017;-78
2023/05/14 06:00:11;;;;;;;8.17;5.40;;;;;;;;;;5054341;28;20308;-77
2023/05/14 06:02:37;;;;;;;6.25;5.25;;;;;;;;;;5036921;28;20262;-77
2023/05/14 06:05:03;;;;;;;13.65;5.50;;;;;;;;;;5057664;28;20074;-78
2023/05/14 06:07:28;;;;;;;8.15;5.47;;;;;;;;;;5056803;28;20024;-78
2023/05/14 06:09:53;;;;;;;9.83;5.60;;;;;;;;;;5055405;28;20036;-77
2023/05/14 06:12:18;;;;;;;10.53;5.60;;;;;;;;;;5057013;28;20282;-78
2023/05/14 06:14:44;;;;;;;7.47;5.33;;;;;;;;;;5038585;28;20250;-78
2023/05/14 06:17:09;;;;;;;9.05;5.45;;;;;;;;;;5054448;28;20250;-77
2023/05/14 06:19:34;;;;;;;7.90;5.47;;;;;;;;;;5036096;28;20568;-78
2023/05/14 06:21:59;;;;;;;8.90;5.90;;;;;;;;;;5039367;28;20781;-78
2023/05/14 06:24:24;;;;;;;7.67;5.30;;;;;;;;;;5056929;28;20304;-78
2023/05/14 06:26:50;;;;;;;7.57;5.10;;;;;;;;;;5054760;28;20756;-77
2023/05/14 06:29:15;;;;;;;8.05;5.32;;;;;;;;;;5035348;28;20254;-77
2023/05/14 06:31:40;;;;;;;9.20;5.50;;;;;;;;;;5053378;28;20028;-77
2023/05/14 06:34:05;;;;;;;7.30;5.00;;;;;;;;;;5054427;28;20025;-77
2023/05/14 06:36:31;;;;;;;8.57;5.40;;;;;;;;;;5053701;28;20312;-77
2023/05/14 06:38:56;;;;;;;6.20;4.83;;;;;;;;;;5053293;28;20261;-76
2023/05/14 06:41:21;;;;;;;7.65;5.22;;;;;;;;;;5053147;28;20292;-76
2023/05/14 06:43:46;;;;;;;6.85;4.82;;;;;;;;;;5035228;28;20021;-78
2023/05/14 06:46:12;;;;;;;6.75;4.80;;;;;;;;;;5053007;28;20028;-77
2023/05/14 06:48:37;;;;;;;6.70;4.55;;;;;;;;;;5052881;28;20147;-78
2023/05/14 06:51:02;;;;;;;7.50;3.93;;;;;;;;;;5053341;28;20020;-77
2023/05/14 06:53:27;;;;;;;8.98;4.30;;;;;;;;;;5035379;28;20261;-77
2023/05/14 06:55:53;;;;;;;6.00;3.90;;;;;;;;;;5053064;28;20033;-78
2023/05/14 06:58:18;;;;;;;7.75;4.18;;;;;;;;;;5052788;28;20269;-77
2023/05/14 07:00:43;;;;;;;7.90;4.23;;;;;;;;;;5052789;28;20459;-78
2023/05/14 07:03:08;;;;;;;11.80;4.30;;;;;;;;;;5052848;28;20718;-78
2023/05/14 07:05:34;;;;;;;6.80;4.10;;;;;;;;;;5051907;28;20029;-77
2023/05/14 07:07:59;;;;;;;6.07;4.05;;;;;;;;;;5052054;28;20257;-76
2023/05/14 07:10:25;;;;;;;5.65;4.47;;;;;;;;;;5034393;28;20100;-75
2023/05/14 07:12:50;;;;;;;5.70;4.00;;;;;;;;;;5052469;28;20116;-77
2023/05/14 07:15:15;;;;;;;5.53;3.90;;;;;;;;;;5033392;28;20438;-76
2023/05/14 07:17:40;;;;;;;5.43;3.92;;;;;;;;;;5052856;28;20660;-76
2023/05/14 07:20:06;;;;;;;5.70;4.17;;;;;;;;;;5034846;28;20488;-77
2023/05/14 07:22:31;;;;;;;7.63;4.03;;;;;;;;;;5052884;28;20664;-78
2023/05/14 07:24:57;;;;;;;6.00;3.90;;;;;;;;;;5055500;28;20043;-79
2023/05/14 07:27:22;;;;;;;7.38;4.20;;;;;;;;;;5058077;28;20836;-79
2023/05/14 07:29:48;;;;;;;4.87;3.80;;;;;;;;;;5057911;28;20021;-80
2023/05/14 07:32:13;;;;;;;6.95;4.10;;;;;;;;;;5040529;28;20737;-80
2023/05/14 07:34:39;;;;;;;5.00;3.80;;;;;;;;;;5058100;28;20036;-80
2023/05/14 07:37:04;;;;;;;5.30;3.73;;;;;;;;;;5058453;28;20270;-80
2023/05/14 07:39:29;;;;;;;4.18;3.30;;;;;;;;;;5057472;28;20258;-79
2023/05/14 07:41:57;;;;;;;5.47;3.67;;;;;;;;;;5057748;28;20099;-81
2023/05/14 07:44:22;;;;;;;7.00;3.67;;;;;;;;;;5040227;28;20032;-80
2023/05/14 07:46:48;;;;;;;7.45;3.88;;;;;;;;;;5059267;28;20025;-81
2023/05/14 07:49:13;;;;;;;7.35;3.85;;;;;;;;;;5058648;28;20073;-80
2023/05/14 07:51:38;;;;;;;9.50;3.50;;;;;;;;;;5060986;28;20407;-80
2023/05/14 07:54:03;;;;;;;9.10;3.53;;;;;;;;;;5062568;28;20606;-79
2023/05/14 07:56:29;;;;;;;6.95;4.00;;;;;;;;;;5046672;28;20268;-81
2023/05/14 07:58:55;;;;;;;8.15;3.50;;;;;;;;;;5064960;28;20024;-78
2023/05/14 08:01:20;;;;;;;5.47;3.70;;;;;;;;;;5065688;28;20060;-80
2023/05/14 08:03:46;;;;;;;4.10;3.20;;;;;;;;;;5044872;28;20029;-80
2023/05/14 08:06:11;;;;;;;5.40;3.05;;;;;;;;;;5061292;28;20056;-81
2023/05/14 08:08:36;;;;;;;4.47;3.50;;;;;;;;;;5061011;28;20429;-80
2023/05/14 08:11:02;;;;;;;5.07;3.33;;;;;;;;;;5061453;28;20028;-79
2023/05/14 08:13:27;;;;;;;6.65;3.47;;;;;;;;;;5060496;28;20250;-78
2023/05/14 08:15:52;;;;;;;5.10;3.53;;;;;;;;;;5060476;28;20048;-79
2023/05/14 08:18:18;;;;;;;4.80;3.30;;;;;;;;;;5060838;28;20278;-81
2023/05/14 08:20:43;;;;;;;5.20;3.57;;;;;;;;;;5061038;28;20260;-79
2023/05/14 08:23:08;;;;;;;7.28;3.42;;;;;;;;;;5061277;28;20278;-78
2023/05/14 08:25:33;;;;;;;7.18;3.28;;;;;;;;;;5061381;28;20029;-79
2023/05/14 08:27:59;;;;;;;4.97;3.75;;;;;;;;;;5061654;28;20027;-78
2023/05/14 08:30:24;;;;;;;5.35;3.38;;;;;;;;;;5060565;28;20056;-79
2023/05/14 08:32:50;;;;;;;4.53;3.10;;;;;;;;;;5057467;28;20408;-80
2023/05/14 08:35:16;;;;;;;7.80;3.65;;;;;;;;;;5055806;28;20032;-77
2023/05/14 08:37:41;;;;;;;6.95;3.78;;;;;;;;;;5055851;28;20029;-77
2023/05/14 08:40:08;;;;;;;5.13;3.70;;;;;;;;;;5056001;28;20023;-78
2023/05/14 08:42:33;;;;;;;5.20;3.90;;;;;;;;;;5057140;28;20025;-77
2023/05/14 08:45:02;;;;;;;4.68;3.72;;;;;;;;;;5056539;28;20028;-78
2023/05/14 08:47:29;;;;;;;6.53;3.85;;;;;;;;;;5057019;28;20083;-77
2023/05/14 08:50:03;;;;;;;6.90;3.55;;;;;;;;;;5057887;28;20400;-79
2023/05/14 08:52:29;;;;;;;10.48;3.78;;;;;;;;;;5039249;28;20071;-77
2023/05/14 08:54:55;;;;;;;7.75;3.63;;;;;;;;;;5057689;28;20029;-79
2023/05/14 08:57:23;;;;;;;7.82;3.58;;;;;;;;;;5056197;28;20032;-77
2023/05/14 08:59:49;;;;;;;5.22;4.00;;;;;;;;;;5038313;28;20426;-77
2023/05/14 09:02:16;;;;;;;6.05;3.63;;;;;;;;;;5056067;28;20021;-76
2023/05/14 09:04:41;;;;;;;4.55;3.42;;;;;;;;;;5039459;28;20159;-78
2023/05/14 09:07:07;;;;;;;5.53;4.05;;;;;;;;;;5056409;28;20492;-77
2023/05/14 09:09:32;;;;;;;6.28;3.63;;;;;;;;;;5055232;28;20047;-77
2023/05/14 09:11:57;;;;;;;6.90;3.28;;;;;;;;;;5055545;28;20545;-79
2023/05/14 09:14:23;;;;;;;6.32;3.70;;;;;;;;;;5057311;28;20477;-78
2023/05/14 09:16:49;;;;;;;6.22;3.40;;;;;;;;;;5059030;28;20025;-79
2023/05/14 09:19:17;;;;;;;6.35;3.72;;;;;;;;;;5040787;28;20025;-79
2023/05/14 09:21:44;;;;;;;6.55;3.35;;;;;;;;;;5058823;28;20029;-79
2023/05/14 09:24:17;;;;;;;5.15;3.33;;;;;;;;;;5040372;28;20051;-79
2023/05/14 09:26:43;;;;;;;7.88;3.70;;;;;;;;;;5059014;28;20089;-81
2023/05/14 09:29:09;;;;;;;5.43;4.00;;;;;;;;;;5058544;28;20045;-79
2023/05/14 09:31:36;;;;;;;5.57;3.70;;;;;;;;;;5038917;28;20467;-77
2023/05/14 09:34:01;;;;;;;4.47;3.35;;;;;;;;;;5037903;28;20028;-78
2023/05/14 09:36:26;;;;;;;5.78;3.25;;;;;;;;;;5037788;28;20028;-77
2023/05/14 09:38:55;;;;;;;5.28;3.05;;;;;;;;;;5054994;28;20392;-78
2023/05/14 09:41:21;;;;;;;5.10;2.80;;;;;;;;;;5038317;28;20071;-77
2023/05/14 09:43:47;;;;;;;4.75;3.30;;;;;;;;;;5054700;28;20055;-78
2023/05/14 09:46:12;;;;;;;5.05;2.80;;;;;;;;;;5056515;28;20041;-79
2023/05/14 09:48:38;;;;;;;7.63;2.92;;;;;;;;;;5054718;28;20391;-79
2023/05/14 09:51:04;;;;;;;4.30;2.97;;;;;;;;;;5055477;28;20021;-79
2023/05/14 09:53:31;;;;;;;4.15;3.10;;;;;;;;;;5054524;28;20044;-78
2023/05/14 09:55:56;;;;;;;3.95;2.92;;;;;;;;;;5055794;28;20032;-79
2023/05/14 09:58:21;;;;;;;4.28;3.22;;;;;;;;;;5057584;28;20025;-78
2023/05/14 10:00:47;;;;;;;4.43;3.28;;;;;;;;;;5056399;28;20100;-76
2023/05/14 10:03:14;;;;;;;3.75;3.30;;;;;;;;;;5054613;28;20035;-78
2023/05/14 10:05:41;;;;;;;3.95;3.03;;;;;;;;;;5036988;28;20070;-79
2023/05/14 10:08:20;;;;;;;4.18;2.92;;;;;;;;;;5057037;28;20024;-78
2023/05/14 10:10:48;;;;;;;4.63;2.80;;;;;;;;;;5039582;28;20035;-78
2023/05/14 10:13:16;;;;;;;7.40;2.97;;;;;;;;;;5056676;28;20025;-77
2023/05/14 10:15:49;;;;;;;6.20;3.17;;;;;;;;;;5055611;28;20489;-78
2023/05/14 10:18:19;;;;;;;5.30;2.90;;;;;;;;;;5056373;28;20127;-77
2023/05/14 10:20:55;;;;;;;5.05;2.95;;;;;;;;;;5055195;28;20492;-78
2023/05/14 10:23:21;;;;;;;3.85;3.03;;;;;;;;;;5036096;28;20090;-77
2023/05/14 10:25:46;;;;;;;4.50;3.10;;;;;;;;;;5054672;28;20096;-78
2023/05/14 10:28:11;;;;;;;4.93;3.30;;;;;;;;;;5056104;28;20491;-78
2023/05/14 10:30:44;;;;;;;4.40;3.03;;;;;;;;;;5055892;28;20602;-77
2023/05/14 10:33:12;;;;;;;5.83;2.83;;;;;;;;;;5054066;28;20027;-77
2023/05/14 10:35:59;;;;;;;3.72;3.08;;;;;;;;;;5035664;28;20773;-77
2023/05/14 10:38:26;;;;;;;5.43;2.78;;;;;;;;;;5053722;28;20035;-77
2023/05/14 10:41:01;;;;;;;5.90;3.10;;;;;;;;;;5053530;28;20029;-78
2023/05/14 10:43:30;;;;;;;3.78;2.90;;;;;;;;;;5036733;28;20029;-78
2023/05/14 10:45:57;;;;;;;4.90;3.20;;;;;;;;;;5036148;28;20025;-77
2023/05/14 10:48:23;;;;;;;4.90;2.90;;;;;;;;;;5053269;28;20028;-78
2023/05/14 10:50:50;;;;;;;5.95;2.88;;;;;;;;;;5035356;28;20025;-77
2023/05/14 10:53:16;;;;;;;3.83;2.67;;;;;;;;;;5053563;28;20369;-78
2023/05/14 10:55:41;;;;;;;3.88;2.80;;;;;;;;;;5053560;28;20079;-79
2023/05/14 10:58:09;;;;;;;2.95;2.40;;;;;;;;;;5054033;28;20028;-79
2023/05/14 11:00:34;;;;;;;3.65;2.53;;;;;;;;;;5054051;28;20028;-78
2023/05/14 11:03:04;;;;;;;5.03;2.83;;;;;;;;;;5053241;28;20025;-78
2023/05/14 11:05:30;;;;;;;3.67;2.83;;;;;;;;;;5036765;28;20438;-78
2023/05/14 11:07:56;;;;;;;3.90;2.60;;;;;;;;;;5053927;28;20104;-78
2023/05/14 11:10:28;;;;;;;4.00;2.80;;;;;;;;;;5055589;28;20025;-78
2023/05/14 11:12:55;;;;;;;5.78;2.88;;;;;;;;;;5054202;28;20171;-79
2023/05/14 11:15:23;;;;;;;3.90;2.90;;;;;;;;;;5053345;28;20187;-77
2023/05/14 11:17:50;;;;;;;6.95;3.03;;;;;;;;;;5035153;28;20074;-77
2023/05/14 11:20:16;;;;;;;4.07;2.58;;;;;;;;;;5054548;28;20029;-78
2023/05/14 11:22:42;;;;;;;3.47;2.53;;;;;;;;;;5038155;28;20028;-79
2023/05/14 11:25:09;;;;;;;3.88;2.53;;;;;;;;;;5038948;28;20025;-78
2023/05/14 11:27:36;;;;;;;6.05;2.72;;;;;;;;;;5061537;28;20040;-80
2023/05/14 11:30:29;;;;;;;3.20;2.80;;;;;;;;;;5130090;22;20059;-80
2023/05/14 11:32:55;;;;;;;4.70;2.67;;;;;;;;;;5061372;28;20033;-79
2023/05/14 11:35:20;;;;;;;5.38;2.60;;;;;;;;;;5060958;28;20029;-79
2023/05/14 11:37:52;;;;;;;3.75;2.70;;;;;;;;;;5066304;28;20028;-79
2023/05/14 11:40:18;;;;;;;4.63;2.55;;;;;;;;;;5059295;28;20531;-79
2023/05/14 11:42:43;;;;;;;5.18;2.80;;;;;;;;;;5042462;28;20033;-80
2023/05/14 11:45:12;;;;;;;4.28;2.45;;;;;;;;;;5061537;28;20468;-78
2023/05/14 11:47:39;;;;;;;5.20;2.60;;;;;;;;;;5061584;28;20036;-80
2023/05/14 11:50:05;;;;;;;6.10;3.05;;;;;;;;;;5058848;28;20028;-82
2023/05/14 11:52:30;;;;;;;5.38;2.75;;;;;;;;;;5041670;28;20116;-78
2023/05/14 11:54:55;;;;;;;4.07;2.70;;;;;;;;;;5057989;28;20025;-78
2023/05/14 11:57:21;;;;;;;5.10;2.70;;;;;;;;;;5058477;28;20254;-80
2023/05/14 11:59:48;;;;;;;5.07;2.72;;;;;;;;;;5059530;28;20029;-80
2023/05/14 12:02:16;;;;;;;3.58;2.10;;;;;;;;;;5041166;28;20025;-79
2023/05/14 12:04:42;;;;;;;3.60;2.42;;;;;;;;;;5058836;28;20106;-80
2023/05/14 12:07:10;;;;;;;3.55;2.50;;;;;;;;;;5038645;28;20050;-76
2023/05/14 12:09:40;;;;;;;4.78;2.33;;;;;;;;;;5038688;28;20032;-78
2023/05/14 12:12:12;;;;;;;5.82;2.40;;;;;;;;;;5058641;28;20037;-77
2023/05/14 12:14:41;;;;;;;3.72;2.40;;;;;;;;;;5038488;28;20032;-78
2023/05/14 12:17:16;;;;;;;4.80;2.50;;;;;;;;;;5058126;28;20491;-78
2023/05/14 12:19:42;;;;;;;4.55;2.60;;;;;;;;;;5059209;28;20407;-79
2023/05/14 12:22:09;;;;;;;3.03;2.22;;;;;;;;;;5059302;28;20017;-79
2023/05/14 12:24:35;;;;;;;4.38;2.40;;;;;;;;;;5059183;28;20067;-79
2023/05/14 12:27:01;;;;;;;2.90;2.33;;;;;;;;;;5059110;28;20029;-78
2023/05/14 12:29:27;;;;;;;2.28;1.83;;;;;;;;;;5058872;28;20028;-79
2023/05/14 12:31:52;;;;;;;4.00;2.20;;;;;;;;;;5059111;28;20109;-79
2023/05/14 12:34:17;;;;;;;2.60;2.23;;;;;;;;;;5041359;28;20491;-79
2023/05/14 12:36:43;;;;;;;4.05;2.25;;;;;;;;;;5058612;28;20284;-78
2023/05/14 12:39:10;;;;;;;3.85;2.33;;;;;;;;;;5041247;28;20024;-79
2023/05/14 12:41:35;;;;;;;5.72;2.30;;;;;;;;;;5059003;28;20035;-78
2023/05/14 12:44:02;;;;;;;5.38;2.40;;;;;;;;;;5041676;28;20017;-78
2023/05/14 12:46:28;;;;;;;4.57;2.55;;;;;;;;;;5058226;28;20025;-80
2023/05/14 12:48:53;;;;;;;4.60;2.40;;;;;;;;;;5058511;28;20029;-77
2023/05/14 12:51:19;;;;;;;3.40;2.35;;;;;;;;;;5058883;28;20051;-80
2023/05/14 12:53:44;;;;;;;2.78;2.38;;;;;;;;;;5058991;28;20021;-79
2023/05/14 12:56:10;;;;;;;3.28;2.47;;;;;;;;;;5058558;28;20029;-79
2023/05/14 12:58:35;;;;;;;4.65;2.10;;;;;;;;;;5058745;28;20511;-79
2023/05/14 13:01:01;;;;;;;3.40;2.20;;;;;;;;;;5059109;28;20025;-79
2023/05/14 13:03:26;;;;;;;3.63;2.50;;;;;;;;;;5058331;28;20273;-78
2023/05/14 13:05:52;;;;;;;5.95;2.78;;;;;;;;;;5040507;28;20025;-79
2023/05/14 13:08:20;;;;;;;6.88;3.17;;;;;;;;;;5058543;28;20136;-79
2023/05/14 13:10:46;;;;;;;6.72;2.83;;;;;;;;;;5058582;28;20088;-79
2023/05/14 13:13:11;;;;;;;3.38;2.38;;;;;;;;;;5040182;28;20488;-78
2023/05/14 13:15:37;;;;;;;3.13;2.10;;;;;;;;;;5040411;28;20024;-79
2023/05/14 13:18:03;;;;;;;5.47;2.60;;;;;;;;;;5059132;28;20472;-79
2023/05/14 13:20:29;;;;;;;3.45;2.55;;;;;;;;;;5040480;28;20035;-77
2023/05/14 13:22:55;;;;;;;4.70;2.47;;;;;;;;;;5058742;28;20033;-79
2023/05/14 13:25:20;;;;;;;3.55;2.42;;;;;;;;;;5040556;28;20021;-78
2023/05/14 13:27:45;;;;;;;3.73;2.47;;;;;;;;;;5058444;28;20447;-78
2023/05/14 13:30:11;;;;;;;2.80;2.30;;;;;;;;;;5058180;28;20732;-79
2023/05/14 13:32:36;;;;;;;2.50;2.15;;;;;;;;;;5039991;28;20257;-80
2023/05/14 13:35:01;;;;;;;4.93;3.27;;;;;;;;;;5058460;28;20538;-80
2023/05/14 13:37:27;;;;;;;5.47;2.80;;;;;;;;;;5058037;28;20270;-80
2023/05/14 13:39:52;;;;;;;6.82;2.65;;;;;;;;;;5057299;28;20671;-81
2023/05/14 13:42:17;;;;;;;7.10;2.70;;;;;;;;;;5057234;28;20059;-78
2023/05/14 13:44:42;;;;;;;4.13;2.43;;;;;;;;;;5040282;28;20286;-79
2023/05/14 13:47:08;;;;;;;6.37;2.60;;;;;;;;;;5058346;28;20262;-78
2023/05/14 13:49:33;;;;;;;3.30;2.40;;;;;;;;;;5057153;28;20254;-79
2023/05/14 13:51:58;;;;;;;3.17;2.30;;;;;;;;;;5058000;28;20761;-79
2023/05/14 13:54:23;;;;;;;3.67;2.50;;;;;;;;;;5039898;28;20772;-81
2023/05/14 13:56:48;;;;;;;4.72;2.70;;;;;;;;;;5057406;28;20621;-79
2023/05/14 13:59:14;;;;;;;2.80;2.10;;;;;;;;;;5057919;28;20052;-79
2023/05/14 14:01:41;;;;;;;3.10;2.40;;;;;;;;;;5040830;28;20371;-78
2023/05/14 14:04:07;;;;;;;5.47;2.50;;;;;;;;;;5040036;28;20040;-80
2023/05/14 14:06:32;;;;;;;3.03;2.67;;;;;;;;;;5057731;28;20051;-79
2023/05/14 14:08:57;;;;;;;4.03;2.50;;;;;;;;;;5057085;28;20029;-81
2023/05/14 14:11:22;;;;;;;3.73;2.40;;;;;;;;;;5057842;28;20319;-79
2023/05/14 14:13:48;;;;;;;5.27;2.50;;;;;;;;;;5058068;28;20785;-80
2023/05/14 14:16:13;;;;;;;5.80;2.60;;;;;;;;;;5057284;28;20781;-78
2023/05/14 14:18:39;;;;;;;3.90;2.47;;;;;;;;;;5039714;28;20258;-80
2023/05/14 14:21:05;;;;;;;5.05;2.80;;;;;;;;;;5039667;28;20032;-79
2023/05/14 14:23:30;;;;;;;3.85;2.60;;;;;;;;;;5057828;28;20100;-79
2023/05/14 14:25:56;;;;;;;4.47;2.40;;;;;;;;;;5057743;28;20036;-78
2023/05/14 14:28:21;;;;;;;4.35;2.70;;;;;;;;;;5057154;28;20277;-78
2023/05/14 14:30:47;;;;;;;3.77;2.70;;;;;;;;;;5056975;28;20033;-79
2023/05/14 14:33:12;;;;;;;2.90;2.60;;;;;;;;;;5056885;28;20262;-79
2023/05/14 14:35:37;;;;;;;6.18;2.60;;;;;;;;;;5056803;28;20021;-79